sensor_id;sensor_type;location;lat;lon;timestamp;pressure;altitude;pressure_sealevel;temperature;humidity
13312;BME280;34033;48.672;9.376;2023-02-25T00:01:10;97407.06;;;6.89;80.51
13312;BME280;34033;48.672;9.376;2023-02-25T00:03:36;97404.72;;;6.91;80.71
13312;BME280;34033;48.672;9.376;2023-02-25T00:06:06;97409.09;;;6.96;80.78
13312;BME280;34033;48.672;9.376;2023-02-25T00:08:32;97410.72;;;7.04;80.70
13312;BME280;34033;48.672;9.376;2023-02-25T00:11:00;97411.88;;;6.92;80.93
13312;BME280;34033;48.672;9.376;2023-02-25T00:13:26;97406.31;;;6.89;81.29
13312;BME280;34033;48.672;9.376;2023-02-25T00:15:52;97416.59;;;6.85;81.79
13312;BME280;34033;48.672;9.376;2023-02-25T00:18:17;97413.00;;;6.81;82.30
13312;BME280;34033;48.672;9.376;2023-02-25T00:20:43;97409.03;;;6.82;82.88
13312;BME280;34033;48.672;9.376;2023-02-25T00:23:08;97413.84;;;6.88;82.22
13312;BME280;34033;48.672;9.376;2023-02-25T00:25:34;97410.66;;;6.86;82.69
13312;BME280;34033;48.672;9.376;2023-02-25T00:27:59;97403.50;;;6.85;82.46
13312;BME280;34033;48.672;9.376;2023-02-25T00:30:25;97398.38;;;6.94;82.73
13312;BME280;34033;48.672;9.376;2023-02-25T00:32:50;97403.91;;;6.87;81.96
13312;BME280;34033;48.672;9.376;2023-02-25T00:35:15;97405.44;;;6.74;81.73
13312;BME280;34033;48.672;9.376;2023-02-25T00:37:41;97400.69;;;6.75;82.45
13312;BME280;34033;48.672;9.376;2023-02-25T00:40:07;97401.47;;;6.72;82.63
13312;BME280;34033;48.672;9.376;2023-02-25T00:42:40;97400.28;;;6.73;82.99
13312;BME280;34033;48.672;9.376;2023-02-25T00:45:06;97409.44;;;6.77;82.77
13312;BME280;34033;48.672;9.376;2023-02-25T00:47:32;97429.63;;;6.70;82.43
13312;BME280;34033;48.672;9.376;2023-02-25T00:49:57;97424.78;;;6.56;82.52
13312;BME280;34033;48.672;9.376;2023-02-25T00:52:23;97428.41;;;6.64;83.36
13312;BME280;34033;48.672;9.376;2023-02-25T00:54:48;97418.09;;;6.64;83.16
13312;BME280;34033;48.672;9.376;2023-02-25T00:57:13;97406.22;;;6.75;82.88
13312;BME280;34033;48.672;9.376;2023-02-25T00:59:39;97408.66;;;6.83;82.77
13312;BME280;34033;48.672;9.376;2023-02-25T01:02:04;97409.44;;;6.80;81.79
13312;BME280;34033;48.672;9.376;2023-02-25T01:04:30;97420.53;;;6.80;82.06
13312;BME280;34033;48.672;9.376;2023-02-25T01:06:55;97418.13;;;6.75;82.30
13312;BME280;34033;48.672;9.376;2023-02-25T01:09:21;97424.47;;;6.72;82.29
13312;BME280;34033;48.672;9.376;2023-02-25T01:11:47;97431.66;;;6.77;82.80
13312;BME280;34033;48.672;9.376;2023-02-25T01:14:18;97438.00;;;6.77;82.39
13312;BME280;34033;48.672;9.376;2023-02-25T01:16:45;97438.34;;;6.68;82.54
13312;BME280;34033;48.672;9.376;2023-02-25T01:19:13;97433.19;;;6.70;82.80
13312;BME280;34033;48.672;9.376;2023-02-25T01:21:41;97425.25;;;6.69;82.11
13312;BME280;34033;48.672;9.376;2023-02-25T01:24:13;97431.53;;;6.55;82.83
13312;BME280;34033;48.672;9.376;2023-02-25T01:26:41;97429.94;;;6.54;84.07
13312;BME280;34033;48.672;9.376;2023-02-25T01:29:12;97438.66;;;6.56;84.58
13312;BME280;34033;48.672;9.376;2023-02-25T01:31:38;97438.66;;;6.53;84.45
13312;BME280;34033;48.672;9.376;2023-02-25T01:34:05;97436.25;;;6.51;84.54
13312;BME280;34033;48.672;9.376;2023-02-25T01:36:32;97433.09;;;6.49;85.08
13312;BME280;34033;48.672;9.376;2023-02-25T01:38:59;97461.22;;;6.44;85.32
13312;BME280;34033;48.672;9.376;2023-02-25T01:41:26;97463.44;;;6.21;85.63
13312;BME280;34033;48.672;9.376;2023-02-25T01:46:30;97463.72;;;6.09;87.09
13312;BME280;34033;48.672;9.376;2023-02-25T01:48:56;97459.06;;;6.20;87.36
13312;BME280;34033;48.672;9.376;2023-02-25T01:51:22;97452.38;;;6.28;86.08
13312;BME280;34033;48.672;9.376;2023-02-25T01:53:53;97455.16;;;6.28;85.03
13312;BME280;34033;48.672;9.376;2023-02-25T01:56:21;97451.19;;;6.29;84.66
13312;BME280;34033;48.672;9.376;2023-02-25T01:58:48;97443.22;;;6.24;83.33
13312;BME280;34033;48.672;9.376;2023-02-25T02:01:18;97448.88;;;6.38;83.45
13312;BME280;34033;48.672;9.376;2023-02-25T02:03:44;97458.06;;;6.49;82.31
13312;BME280;34033;48.672;9.376;2023-02-25T02:06:24;97458.50;;;6.58;82.00
13312;BME280;34033;48.672;9.376;2023-02-25T02:08:52;97457.78;;;6.68;81.42
13312;BME280;34033;48.672;9.376;2023-02-25T02:11:18;97454.63;;;6.74;80.91
13312;BME280;34033;48.672;9.376;2023-02-25T02:13:49;97444.38;;;6.85;80.45
13312;BME280;34033;48.672;9.376;2023-02-25T02:22:16;97445.91;;;6.75;78.56
13312;BME280;34033;48.672;9.376;2023-02-25T02:27:25;97456.53;;;6.62;78.15
13312;BME280;34033;48.672;9.376;2023-02-25T02:32:54;97466.38;;;6.46;78.57
13312;BME280;34033;48.672;9.376;2023-02-25T02:38:20;97464.38;;;6.43;77.78
13312;BME280;34033;48.672;9.376;2023-02-25T02:41:24;97462.84;;;6.52;77.49
13312;BME280;34033;48.672;9.376;2023-02-25T02:44:03;97461.28;;;6.58;77.18
13312;BME280;34033;48.672;9.376;2023-02-25T02:46:38;97445.78;;;6.50;76.43
13312;BME280;34033;48.672;9.376;2023-02-25T02:49:18;97452.41;;;6.35;75.92
13312;BME280;34033;48.672;9.376;2023-02-25T02:52:06;97446.44;;;6.29;77.18
13312;BME280;34033;48.672;9.376;2023-02-25T02:54:36;97455.66;;;6.44;77.01
13312;BME280;34033;48.672;9.376;2023-02-25T02:57:04;97464.00;;;6.44;77.25
13312;BME280;34033;48.672;9.376;2023-02-25T02:59:37;97461.66;;;6.57;77.61
13312;BME280;34033;48.672;9.376;2023-02-25T03:02:16;97459.38;;;6.69;77.47
13312;BME280;34033;48.672;9.376;2023-02-25T03:04:44;97461.00;;;6.78;76.78
13312;BME280;34033;48.672;9.376;2023-02-25T03:07:12;97466.16;;;6.79;76.58
13312;BME280;34033;48.672;9.376;2023-02-25T03:09:42;97470.06;;;6.64;76.60
13312;BME280;34033;48.672;9.376;2023-02-25T03:12:09;97473.56;;;6.57;76.69
13312;BME280;34033;48.672;9.376;2023-02-25T03:14:37;97486.22;;;6.51;77.40
13312;BME280;34033;48.672;9.376;2023-02-25T03:19:36;97476.34;;;6.50;77.39
13312;BME280;34033;48.672;9.376;2023-02-25T03:22:08;97475.13;;;6.48;76.47
13312;BME280;34033;48.672;9.376;2023-02-25T03:24:40;97477.47;;;6.42;77.12
13312;BME280;34033;48.672;9.376;2023-02-25T03:27:26;97476.66;;;6.45;77.44
13312;BME280;34033;48.672;9.376;2023-02-25T03:29:57;97483.03;;;6.46;78.18
13312;BME280;34033;48.672;9.376;2023-02-25T03:32:26;97486.66;;;6.53;78.06
13312;BME280;34033;48.672;9.376;2023-02-25T03:34:54;97490.97;;;6.44;77.98
13312;BME280;34033;48.672;9.376;2023-02-25T03:37:25;97475.09;;;6.44;78.22
13312;BME280;34033;48.672;9.376;2023-02-25T03:39:56;97490.56;;;6.45;77.54
13312;BME280;34033;48.672;9.376;2023-02-25T03:42:28;97492.06;;;6.32;76.99
13312;BME280;34033;48.672;9.376;2023-02-25T03:44:58;97490.00;;;6.22;77.97
13312;BME280;34033;48.672;9.376;2023-02-25T03:47:25;97491.63;;;6.26;78.54
13312;BME280;34033;48.672;9.376;2023-02-25T03:50:02;97487.25;;;6.25;78.64
13312;BME280;34033;48.672;9.376;2023-02-25T03:52:30;97500.69;;;6.20;78.32
13312;BME280;34033;48.672;9.376;2023-02-25T03:54:57;97502.75;;;6.30;79.06
13312;BME280;34033;48.672;9.376;2023-02-25T03:57:25;97500.03;;;6.41;78.84
13312;BME280;34033;48.672;9.376;2023-02-25T03:59:52;97500.91;;;6.48;78.83
13312;BME280;34033;48.672;9.376;2023-02-25T04:02:24;97506.47;;;6.52;77.46
13312;BME280;34033;48.672;9.376;2023-02-25T04:04:52;97506.91;;;6.57;77.26
13312;BME280;34033;48.672;9.376;2023-02-25T04:07:17;97514.09;;;6.65;77.36
13312;BME280;34033;48.672;9.376;2023-02-25T04:09:43;97515.66;;;6.63;76.19
13312;BME280;34033;48.672;9.376;2023-02-25T04:12:08;97520.38;;;6.55;75.18
13312;BME280;34033;48.672;9.376;2023-02-25T04:14:33;97523.50;;;6.47;74.66
13312;BME280;34033;48.672;9.376;2023-02-25T04:16:59;97529.38;;;6.38;74.83
13312;BME280;34033;48.672;9.376;2023-02-25T04:19:24;97530.19;;;6.39;75.03
13312;BME280;34033;48.672;9.376;2023-02-25T04:21:50;97539.56;;;6.23;74.22
13312;BME280;34033;48.672;9.376;2023-02-25T04:24:15;97534.81;;;6.24;74.34
13312;BME280;34033;48.672;9.376;2023-02-25T04:26:40;97540.78;;;6.26;74.39
13312;BME280;34033;48.672;9.376;2023-02-25T04:29:06;97531.50;;;6.08;68.63
13312;BME280;34033;48.672;9.376;2023-02-25T04:31:31;97545.47;;;5.81;67.37
13312;BME280;34033;48.672;9.376;2023-02-25T04:33:57;97546.78;;;5.54;66.77
13312;BME280;34033;48.672;9.376;2023-02-25T04:36:31;97542.06;;;5.58;67.27
13312;BME280;34033;48.672;9.376;2023-02-25T04:38:58;97544.13;;;5.65;67.37
13312;BME280;34033;48.672;9.376;2023-02-25T04:41:27;97536.84;;;5.53;67.00
13312;BME280;34033;48.672;9.376;2023-02-25T04:43:53;97534.53;;;5.55;67.81
13312;BME280;34033;48.672;9.376;2023-02-25T04:46:18;97535.59;;;5.47;68.01
13312;BME280;34033;48.672;9.376;2023-02-25T04:48:44;97532.13;;;5.54;67.86
13312;BME280;34033;48.672;9.376;2023-02-25T04:51:09;97527.38;;;5.54;67.75
13312;BME280;34033;48.672;9.376;2023-02-25T04:53:35;97530.69;;;5.67;68.15
13312;BME280;34033;48.672;9.376;2023-02-25T04:56:02;97534.34;;;5.41;66.88
13312;BME280;34033;48.672;9.376;2023-02-25T04:58:27;97546.41;;;5.56;66.35
13312;BME280;34033;48.672;9.376;2023-02-25T05:00:53;97549.53;;;5.54;66.25
13312;BME280;34033;48.672;9.376;2023-02-25T05:03:21;97545.03;;;5.39;66.52
13312;BME280;34033;48.672;9.376;2023-02-25T05:05:47;97547.78;;;5.39;66.72
13312;BME280;34033;48.672;9.376;2023-02-25T05:08:12;97552.31;;;5.54;66.79
13312;BME280;34033;48.672;9.376;2023-02-25T05:10:37;97547.09;;;5.45;65.20
13312;BME280;34033;48.672;9.376;2023-02-25T05:13:03;97548.28;;;5.48;65.27
13312;BME280;34033;48.672;9.376;2023-02-25T05:15:28;97543.06;;;5.39;65.29
13312;BME280;34033;48.672;9.376;2023-02-25T05:17:53;97541.84;;;5.40;65.41
13312;BME280;34033;48.672;9.376;2023-02-25T05:20:19;97543.00;;;5.36;64.93
13312;BME280;34033;48.672;9.376;2023-02-25T05:22:44;97535.94;;;5.42;65.24
13312;BME280;34033;48.672;9.376;2023-02-25T05:25:10;97537.66;;;5.54;66.01
13312;BME280;34033;48.672;9.376;2023-02-25T05:27:36;97538.94;;;5.63;65.63
13312;BME280;34033;48.672;9.376;2023-02-25T05:30:01;97541.09;;;5.77;65.64
13312;BME280;34033;48.672;9.376;2023-02-25T05:32:29;97545.59;;;5.89;64.82
13312;BME280;34033;48.672;9.376;2023-02-25T05:34:55;97534.50;;;5.89;64.73
13312;BME280;34033;48.672;9.376;2023-02-25T05:37:21;97540.84;;;5.89;64.51
13312;BME280;34033;48.672;9.376;2023-02-25T05:39:46;97536.69;;;5.72;64.10
13312;BME280;34033;48.672;9.376;2023-02-25T05:42:12;97543.31;;;5.64;63.69
13312;BME280;34033;48.672;9.376;2023-02-25T05:44:37;97540.91;;;5.63;63.49
13312;BME280;34033;48.672;9.376;2023-02-25T05:47:02;97551.63;;;5.64;63.75
13312;BME280;34033;48.672;9.376;2023-02-25T05:49:28;97548.53;;;5.69;64.58
13312;BME280;34033;48.672;9.376;2023-02-25T05:51:53;97559.94;;;5.61;63.98
13312;BME280;34033;48.672;9.376;2023-02-25T05:54:19;97561.00;;;5.53;62.54
13312;BME280;34033;48.672;9.376;2023-02-25T05:56:44;97566.03;;;5.40;63.36
13312;BME280;34033;48.672;9.376;2023-02-25T05:59:10;97560.19;;;5.49;63.35
13312;BME280;34033;48.672;9.376;2023-02-25T06:01:36;97567.78;;;5.55;63.54
13312;BME280;34033;48.672;9.376;2023-02-25T06:04:01;97562.28;;;5.59;62.86
13312;BME280;34033;48.672;9.376;2023-02-25T06:06:28;97557.56;;;5.63;62.33
13312;BME280;34033;48.672;9.376;2023-02-25T06:08:55;97564.63;;;5.57;61.79
13312;BME280;34033;48.672;9.376;2023-02-25T06:11:28;97566.88;;;5.47;61.31
13312;BME280;34033;48.672;9.376;2023-02-25T06:13:54;97572.56;;;5.58;61.97
13312;BME280;34033;48.672;9.376;2023-02-25T06:16:21;97573.53;;;5.73;62.50
13312;BME280;34033;48.672;9.376;2023-02-25T06:18:47;97585.13;;;5.85;62.48
13312;BME280;34033;48.672;9.376;2023-02-25T06:21:14;97576.50;;;5.91;62.37
13312;BME280;34033;48.672;9.376;2023-02-25T06:23:40;97582.06;;;5.91;61.90
13312;BME280;34033;48.672;9.376;2023-02-25T06:26:07;97583.13;;;5.82;60.76
13312;BME280;34033;48.672;9.376;2023-02-25T06:28:34;97581.44;;;5.74;60.24
13312;BME280;34033;48.672;9.376;2023-02-25T06:31:00;97584.69;;;5.80;61.38
13312;BME280;34033;48.672;9.376;2023-02-25T06:33:28;97588.69;;;5.82;60.86
13312;BME280;34033;48.672;9.376;2023-02-25T06:35:55;97594.22;;;5.82;60.46
13312;BME280;34033;48.672;9.376;2023-02-25T06:38:20;97589.50;;;5.86;60.72
13312;BME280;34033;48.672;9.376;2023-02-25T06:40:46;97593.53;;;5.89;60.59
13312;BME280;34033;48.672;9.376;2023-02-25T06:43:13;97594.19;;;5.79;60.10
13312;BME280;34033;48.672;9.376;2023-02-25T06:45:38;97597.00;;;5.82;59.67
13312;BME280;34033;48.672;9.376;2023-02-25T06:48:04;97599.69;;;5.75;59.97
13312;BME280;34033;48.672;9.376;2023-02-25T06:50:31;97599.78;;;5.82;60.24
13312;BME280;34033;48.672;9.376;2023-02-25T06:52:56;97601.91;;;5.93;60.85
13312;BME280;34033;48.672;9.376;2023-02-25T06:55:22;97595.53;;;5.92;60.47
13312;BME280;34033;48.672;9.376;2023-02-25T06:57:47;97595.91;;;5.91;60.72
13312;BME280;34033;48.672;9.376;2023-02-25T07:00:13;97585.00;;;6.05;61.61
13312;BME280;34033;48.672;9.376;2023-02-25T07:02:39;97581.13;;;6.16;61.18
13312;BME280;34033;48.672;9.376;2023-02-25T07:05:04;97589.91;;;6.22;60.99
13312;BME280;34033;48.672;9.376;2023-02-25T07:07:30;97604.19;;;6.24;61.11
13312;BME280;34033;48.672;9.376;2023-02-25T07:09:56;97599.34;;;6.58;74.56
13312;BME280;34033;48.672;9.376;2023-02-25T07:12:21;97600.28;;;6.80;66.25
13312;BME280;34033;48.672;9.376;2023-02-25T07:14:47;97599.91;;;7.46;78.93
13312;BME280;34033;48.672;9.376;2023-02-25T07:17:12;97597.53;;;7.55;64.86
13312;BME280;34033;48.672;9.376;2023-02-25T07:19:37;97600.31;;;7.55;60.79
13312;BME280;34033;48.672;9.376;2023-02-25T07:22:03;97602.47;;;7.97;79.82
13312;BME280;34033;48.672;9.376;2023-02-25T07:24:29;97601.59;;;7.72;63.67
13312;BME280;34033;48.672;9.376;2023-02-25T07:26:55;97602.34;;;7.59;60.20
13312;BME280;34033;48.672;9.376;2023-02-25T07:29:20;97605.88;;;7.48;60.62
13312;BME280;34033;48.672;9.376;2023-02-25T07:31:46;97607.06;;;7.47;60.09
13312;BME280;34033;48.672;9.376;2023-02-25T07:34:12;97606.63;;;7.45;61.13
13312;BME280;34033;48.672;9.376;2023-02-25T07:36:39;97606.50;;;8.14;86.07
13312;BME280;34033;48.672;9.376;2023-02-25T07:39:06;97618.31;;;7.76;59.36
13312;BME280;34033;48.672;9.376;2023-02-25T07:41:33;97612.63;;;7.47;60.81
13312;BME280;34033;48.672;9.376;2023-02-25T07:43:59;97612.94;;;7.35;58.28
13312;BME280;34033;48.672;9.376;2023-02-25T07:46:24;97616.16;;;7.41;60.01
13312;BME280;34033;48.672;9.376;2023-02-25T07:48:50;97616.16;;;7.41;58.96
13312;BME280;34033;48.672;9.376;2023-02-25T07:51:19;97606.72;;;7.60;60.13
13312;BME280;34033;48.672;9.376;2023-02-25T07:53:46;97600.75;;;7.54;57.98
13312;BME280;34033;48.672;9.376;2023-02-25T07:56:12;97602.69;;;7.50;57.12
13312;BME280;34033;48.672;9.376;2023-02-25T07:58:38;97602.16;;;7.20;57.05
13312;BME280;34033;48.672;9.376;2023-02-25T08:01:12;97601.00;;;6.66;58.48
13312;BME280;34033;48.672;9.376;2023-02-25T08:03:42;97598.88;;;6.52;60.63
13312;BME280;34033;48.672;9.376;2023-02-25T08:06:07;97606.25;;;6.34;60.98
13312;BME280;34033;48.672;9.376;2023-02-25T08:08:36;97608.72;;;6.39;61.84
13312;BME280;34033;48.672;9.376;2023-02-25T08:11:06;97611.59;;;6.53;63.02
13312;BME280;34033;48.672;9.376;2023-02-25T08:13:31;97608.81;;;6.53;61.89
13312;BME280;34033;48.672;9.376;2023-02-25T08:15:56;97614.81;;;6.55;60.64
13312;BME280;34033;48.672;9.376;2023-02-25T08:18:22;97616.00;;;6.58;61.55
13312;BME280;34033;48.672;9.376;2023-02-25T08:20:47;97624.31;;;6.54;61.03
13312;BME280;34033;48.672;9.376;2023-02-25T08:23:13;97603.03;;;6.73;61.80
13312;BME280;34033;48.672;9.376;2023-02-25T08:25:38;97606.50;;;6.62;59.93
13312;BME280;34033;48.672;9.376;2023-02-25T08:28:04;97602.19;;;6.65;61.64
13312;BME280;34033;48.672;9.376;2023-02-25T08:30:29;97609.38;;;6.73;60.82
13312;BME280;34033;48.672;9.376;2023-02-25T08:32:54;97609.78;;;6.75;57.30
13312;BME280;34033;48.672;9.376;2023-02-25T08:35:22;97620.66;;;6.94;58.03
13312;BME280;34033;48.672;9.376;2023-02-25T08:37:50;97629.44;;;7.03;63.49
13312;BME280;34033;48.672;9.376;2023-02-25T08:40:16;97622.66;;;7.73;67.58
13312;BME280;34033;48.672;9.376;2023-02-25T08:42:42;97615.44;;;7.62;53.93
13312;BME280;34033;48.672;9.376;2023-02-25T08:45:07;97612.81;;;7.97;69.82
13312;BME280;34033;48.672;9.376;2023-02-25T08:47:34;97617.16;;;7.94;53.96
13312;BME280;34033;48.672;9.376;2023-02-25T08:49:59;97610.75;;;7.80;53.34
13312;BME280;34033;48.672;9.376;2023-02-25T08:52:25;97609.88;;;7.62;52.40
13312;BME280;34033;48.672;9.376;2023-02-25T08:54:50;97608.88;;;9.40;86.91
13312;BME280;34033;48.672;9.376;2023-02-25T08:57:16;97610.47;;;10.31;62.50
13312;BME280;34033;48.672;9.376;2023-02-25T08:59:41;97602.56;;;10.16;47.90
13312;BME280;34033;48.672;9.376;2023-02-25T09:02:09;97600.72;;;9.84;48.77
13312;BME280;34033;48.672;9.376;2023-02-25T09:04:39;97600.31;;;9.82;52.64
13312;BME280;34033;48.672;9.376;2023-02-25T09:07:05;97604.78;;;9.66;48.82
13312;BME280;34033;48.672;9.376;2023-02-25T09:09:30;97604.97;;;9.02;47.25
13312;BME280;34033;48.672;9.376;2023-02-25T09:11:58;97603.00;;;8.92;48.58
13312;BME280;34033;48.672;9.376;2023-02-25T09:14:24;97606.19;;;8.69;47.66
13312;BME280;34033;48.672;9.376;2023-02-25T09:16:49;97608.16;;;8.44;47.34
13312;BME280;34033;48.672;9.376;2023-02-25T09:19:15;97607.78;;;8.52;49.49
13312;BME280;34033;48.672;9.376;2023-02-25T09:21:43;97602.97;;;8.31;48.54
13312;BME280;34033;48.672;9.376;2023-02-25T09:24:09;97606.16;;;8.30;47.42
13312;BME280;34033;48.672;9.376;2023-02-25T09:26:34;97599.38;;;8.34;48.90
13312;BME280;34033;48.672;9.376;2023-02-25T09:29:02;97603.31;;;8.23;48.66
13312;BME280;34033;48.672;9.376;2023-02-25T09:31:28;97601.34;;;8.23;49.11
13312;BME280;34033;48.672;9.376;2023-02-25T09:33:53;97602.88;;;7.96;50.56
13312;BME280;34033;48.672;9.376;2023-02-25T09:36:20;97592.53;;;7.96;49.78
13312;BME280;34033;48.672;9.376;2023-02-25T09:38:47;97598.91;;;8.04;50.32
13312;BME280;34033;48.672;9.376;2023-02-25T09:41:34;97604.41;;;7.83;48.82
13312;BME280;34033;48.672;9.376;2023-02-25T09:44:26;97605.25;;;7.97;50.17
13312;BME280;34033;48.672;9.376;2023-02-25T09:47:02;97604.09;;;8.09;49.92
13312;BME280;34033;48.672;9.376;2023-02-25T09:49:35;97596.91;;;7.97;49.18
13312;BME280;34033;48.672;9.376;2023-02-25T09:52:25;97600.06;;;7.96;49.66
13312;BME280;34033;48.672;9.376;2023-02-25T09:55:07;97596.53;;;8.03;48.89
13312;BME280;34033;48.672;9.376;2023-02-25T09:57:37;97598.09;;;8.00;50.00
13312;BME280;34033;48.672;9.376;2023-02-25T10:00:14;97601.66;;;7.90;48.32
13312;BME280;34033;48.672;9.376;2023-02-25T10:03:01;97589.34;;;8.02;47.98
13312;BME280;34033;48.672;9.376;2023-02-25T10:08:29;97591.75;;;8.03;49.43
13312;BME280;34033;48.672;9.376;2023-02-25T10:11:17;97594.94;;;8.09;49.25
13312;BME280;34033;48.672;9.376;2023-02-25T10:14:04;97591.75;;;8.03;48.86
13312;BME280;34033;48.672;9.376;2023-02-25T10:17:06;97588.19;;;8.03;49.19
13312;BME280;34033;48.672;9.376;2023-02-25T10:25:04;97588.00;;;7.53;46.66
13312;BME280;34033;48.672;9.376;2023-02-25T10:27:37;97579.78;;;7.81;47.95
13312;BME280;34033;48.672;9.376;2023-02-25T10:30:09;97583.00;;;8.12;47.87
13312;BME280;34033;48.672;9.376;2023-02-25T10:32:37;97577.84;;;8.03;47.65
13312;BME280;34033;48.672;9.376;2023-02-25T10:35:16;97580.66;;;8.10;48.36
13312;BME280;34033;48.672;9.376;2023-02-25T10:37:43;97573.03;;;7.89;45.52
13312;BME280;34033;48.672;9.376;2023-02-25T10:40:17;97577.84;;;8.03;46.97
13312;BME280;34033;48.672;9.376;2023-02-25T10:42:49;97569.13;;;8.19;48.46
13312;BME280;34033;48.672;9.376;2023-02-25T10:45:24;97562.00;;;8.35;49.53
13312;BME280;34033;48.672;9.376;2023-02-25T10:48:16;97574.34;;;8.45;47.57
13312;BME280;34033;48.672;9.376;2023-02-25T10:51:00;97552.84;;;8.38;43.71
13312;BME280;34033;48.672;9.376;2023-02-25T10:53:27;97557.19;;;8.25;43.17
13312;BME280;34033;48.672;9.376;2023-02-25T10:55:52;97559.16;;;8.07;43.10
13312;BME280;34033;48.672;9.376;2023-02-25T10:58:35;97552.41;;;8.08;42.96
13312;BME280;34033;48.672;9.376;2023-02-25T11:03:56;97553.56;;;8.00;43.81
13312;BME280;34033;48.672;9.376;2023-02-25T11:06:34;97541.66;;;8.07;44.74
13312;BME280;34033;48.672;9.376;2023-02-25T11:09:03;97542.06;;;7.98;43.80
13312;BME280;34033;48.672;9.376;2023-02-25T11:11:31;97555.19;;;8.08;45.64
13312;BME280;34033;48.672;9.376;2023-02-25T11:14:04;97549.59;;;7.97;43.65
13312;BME280;34033;48.672;9.376;2023-02-25T11:16:32;97547.66;;;8.16;44.41
13312;BME280;34033;48.672;9.376;2023-02-25T11:19:02;97555.19;;;8.05;44.01
13312;BME280;34033;48.672;9.376;2023-02-25T11:21:35;97565.13;;;8.09;44.73
13312;BME280;34033;48.672;9.376;2023-02-25T11:24:05;97555.16;;;8.01;44.41
13312;BME280;34033;48.672;9.376;2023-02-25T11:26:35;97560.75;;;8.08;44.55
13312;BME280;34033;48.672;9.376;2023-02-25T11:29:13;97557.53;;;7.95;44.82
13312;BME280;34033;48.672;9.376;2023-02-25T11:31:40;97546.44;;;8.13;44.81
13312;BME280;34033;48.672;9.376;2023-02-25T11:34:33;97557.97;;;8.08;46.00
13312;BME280;34033;48.672;9.376;2023-02-25T11:39:53;97546.44;;;8.24;45.43
13312;BME280;34033;48.672;9.376;2023-02-25T11:42:25;97549.63;;;8.19;45.54
13312;BME280;34033;48.672;9.376;2023-02-25T11:44:58;97549.63;;;8.15;45.18
13312;BME280;34033;48.672;9.376;2023-02-25T11:47:26;97548.00;;;8.11;45.47
13312;BME280;34033;48.672;9.376;2023-02-25T11:55:14;97551.25;;;8.55;44.04
13312;BME280;34033;48.672;9.376;2023-02-25T11:58:05;97542.13;;;8.48;42.80
13312;BME280;34033;48.672;9.376;2023-02-25T12:03:33;97545.66;;;8.84;50.46
13312;BME280;34033;48.672;9.376;2023-02-25T12:06:10;97540.13;;;8.59;43.67
13312;BME280;34033;48.672;9.376;2023-02-25T12:17:51;97560.41;;;8.42;47.43
13312;BME280;34033;48.672;9.376;2023-02-25T12:28:18;97533.38;;;8.60;49.56
13312;BME280;34033;48.672;9.376;2023-02-25T12:39:26;97547.03;;;9.59;73.35
13312;BME280;34033;48.672;9.376;2023-02-25T12:47:41;97529.16;;;10.19;48.38
13312;BME280;34033;48.672;9.376;2023-02-25T12:50:37;97535.31;;;10.48;48.07
13312;BME280;34033;48.672;9.376;2023-02-25T12:53:15;97534.91;;;9.90;44.93
13312;BME280;34033;48.672;9.376;2023-02-25T12:55:55;97527.84;;;9.68;46.41
13312;BME280;34033;48.672;9.376;2023-02-25T13:31:04;97538.25;;;7.30;54.85
13312;BME280;34033;48.672;9.376;2023-02-25T13:41:46;97531.84;;;7.19;56.63
13312;BME280;34033;48.672;9.376;2023-02-25T13:44:26;97540.91;;;7.02;56.05
13312;BME280;34033;48.672;9.376;2023-02-25T13:49:55;97536.50;;;6.94;57.54
13312;BME280;34033;48.672;9.376;2023-02-25T13:52:27;97538.38;;;6.76;57.43
13312;BME280;34033;48.672;9.376;2023-02-25T14:06:00;97541.22;;;6.86;59.08
13312;BME280;34033;48.672;9.376;2023-02-25T14:12:13;97533.44;;;7.17;58.51
13312;BME280;34033;48.672;9.376;2023-02-25T14:14:52;97530.38;;;7.43;58.16
13312;BME280;34033;48.672;9.376;2023-02-25T14:40:47;97537.69;;;8.11;52.07
13312;BME280;34033;48.672;9.376;2023-02-25T14:46:02;97534.91;;;8.25;50.07
13312;BME280;34033;48.672;9.376;2023-02-25T14:57:38;97532.53;;;8.56;48.37
13312;BME280;34033;48.672;9.376;2023-02-25T15:08:44;97530.97;;;8.30;50.14
13312;BME280;34033;48.672;9.376;2023-02-25T15:11:35;97538.53;;;8.36;50.97
13312;BME280;34033;48.672;9.376;2023-02-25T15:22:52;97543.69;;;8.56;50.23
13312;BME280;34033;48.672;9.376;2023-02-25T15:27:49;97548.88;;;8.50;49.83
13312;BME280;34033;48.672;9.376;2023-02-25T15:30:19;97546.47;;;8.45;49.21
13312;BME280;34033;48.672;9.376;2023-02-25T15:38:17;97558.44;;;8.60;49.92
13312;BME280;34033;48.672;9.376;2023-02-25T15:40:48;97551.25;;;8.52;49.40
13312;BME280;34033;48.672;9.376;2023-02-25T15:45:43;97555.25;;;8.65;48.38
13312;BME280;34033;48.672;9.376;2023-02-25T15:53:09;97566.31;;;8.22;49.02
13312;BME280;34033;48.672;9.376;2023-02-25T15:55:36;97567.94;;;8.20;50.01
13312;BME280;34033;48.672;9.376;2023-02-25T16:11:19;97572.53;;;7.59;49.15
13312;BME280;34033;48.672;9.376;2023-02-25T16:13:46;97567.78;;;7.63;49.88
13312;BME280;34033;48.672;9.376;2023-02-25T16:16:13;97573.69;;;7.47;49.07
13312;BME280;34033;48.672;9.376;2023-02-25T16:18:42;97578.00;;;7.34;49.23
13312;BME280;34033;48.672;9.376;2023-02-25T16:21:37;97580.75;;;7.31;49.62
13312;BME280;34033;48.672;9.376;2023-02-25T16:24:08;97583.50;;;7.20;49.44
13312;BME280;34033;48.672;9.376;2023-02-25T16:26:51;97607.22;;;7.07;50.06
13312;BME280;34033;48.672;9.376;2023-02-25T16:39:48;97631.28;;;7.50;67.35
13312;BME280;34033;48.672;9.376;2023-02-25T16:42:16;97636.00;;;7.39;63.93
13312;BME280;34033;48.672;9.376;2023-02-25T16:44:54;97642.25;;;7.19;63.36
13312;BME280;34033;48.672;9.376;2023-02-25T16:47:30;97654.22;;;7.33;72.58
13312;BME280;34033;48.672;9.376;2023-02-25T16:49:57;97665.28;;;7.23;64.43
13312;BME280;34033;48.672;9.376;2023-02-25T16:52:30;97662.44;;;7.12;64.16
13312;BME280;34033;48.672;9.376;2023-02-25T16:55:01;97667.53;;;6.99;64.51
13312;BME280;34033;48.672;9.376;2023-02-25T16:57:30;97664.53;;;6.71;64.50
13312;BME280;34033;48.672;9.376;2023-02-25T17:02:47;97657.47;;;6.40;65.81
13312;BME280;34033;48.672;9.376;2023-02-25T17:07:58;97663.81;;;6.41;66.71
13312;BME280;34033;48.672;9.376;2023-02-25T17:10:46;97676.25;;;6.50;66.67